Time;durP1;ratioP1;P1;durP2;ratioP2;P2;SDS_P1;SDS_P2;PMS_P1;PMS_P2;Temp;Humidity;BMP_temperature;BMP_pressure;BME280_temperature;BME280_humidity;BME280_pressure;Samples;Min_cycle;Max_cycle;Signal;HPM_P1;HPM_P2
2024/02/09 00:00:21;;;;;;;1999.90;999.90;;;13.10;99.90;;;;;;5113160;28;20027;-78
2024/02/09 00:02:47;;;;;;;1999.90;999.90;;;13.10;99.90;;;;;;5112714;28;20015;-79
2024/02/09 00:05:14;;;;;;;1999.90;999.90;;;13.10;99.90;;;;;;5112924;28;20051;-83
2024/02/09 00:07:46;;;;;;;1999.90;999.90;;;13.10;99.90;;;;;;5094728;28;20386;-83
2024/02/09 00:10:12;;;;;;;1999.90;999.90;;;13.20;99.90;;;;;;5095004;28;20020;-78
2024/02/09 00:12:40;;;;;;;1999.90;999.90;;;13.20;99.90;;;;;;5094447;28;20039;-78
2024/02/09 00:15:07;;;;;;;1999.90;999.90;;;13.20;99.90;;;;;;5094818;28;20019;-78
2024/02/09 00:17:33;;;;;;;1999.90;999.90;;;13.20;99.90;;;;;;5094401;28;20030;-78
2024/02/09 00:19:59;;;;;;;1999.90;999.90;;;13.20;99.90;;;;;;5094994;28;20110;-84
2024/02/09 00:22:25;;;;;;;1999.90;999.90;;;13.20;99.90;;;;;;5094920;28;20028;-79
2024/02/09 00:24:51;;;;;;;1999.90;999.90;;;13.20;99.90;;;;;;5094771;28;20080;-79
2024/02/09 00:27:18;;;;;;;1999.90;999.90;;;13.10;99.90;;;;;;5094743;28;20031;-79
2024/02/09 00:29:43;;;;;;;1999.90;999.90;;;13.00;99.90;;;;;;5094956;28;20024;-78
2024/02/09 00:32:09;;;;;;;1999.90;999.90;;;12.90;99.90;;;;;;5112000;28;20085;-79
2024/02/09 00:34:35;;;;;;;1999.90;999.90;;;12.90;99.90;;;;;;5094812;28;20020;-80
2024/02/09 00:37:01;;;;;;;1999.90;999.90;;;12.90;99.90;;;;;;5113236;28;20028;-79
2024/02/09 00:39:33;;;;;;;1999.90;999.90;;;12.90;99.90;;;;;;5094668;28;20027;-78
2024/02/09 00:42:02;;;;;;;1999.90;999.90;;;13.00;99.90;;;;;;5094676;28;20035;-83
2024/02/09 00:44:28;;;;;;;1999.90;999.90;;;12.90;99.90;;;;;;5118990;28;20023;-79
2024/02/09 00:46:53;;;;;;;1999.90;999.90;;;12.90;99.90;;;;;;5109519;28;20015;-82
2024/02/09 00:49:20;;;;;;;1999.90;999.90;;;13.00;99.90;;;;;;5129160;28;20038;-78
2024/02/09 00:51:45;;;;;;;1999.90;999.90;;;13.00;99.90;;;;;;5133288;28;20033;-79
2024/02/09 00:54:14;;;;;;;1999.90;999.90;;;12.90;99.90;;;;;;5121953;28;20024;-80
2024/02/09 00:56:41;;;;;;;1999.90;999.90;;;12.90;99.90;;;;;;5119384;28;20011;-79
2024/02/09 00:59:07;;;;;;;1999.90;999.90;;;13.00;99.90;;;;;;5112755;28;20030;-85
2024/02/09 01:01:33;;;;;;;1999.90;999.90;;;12.90;99.90;;;;;;5111864;28;20027;-79
2024/02/09 01:04:00;;;;;;;1999.90;999.90;;;13.00;99.90;;;;;;5094796;28;20046;-79
2024/02/09 01:06:26;;;;;;;1999.90;999.90;;;13.10;99.90;;;;;;5098076;28;20395;-79
2024/02/09 01:08:52;;;;;;;1999.90;999.90;;;13.10;99.90;;;;;;5098039;28;20512;-83
2024/02/09 01:11:18;;;;;;;1999.90;999.90;;;13.00;99.90;;;;;;5116881;28;20027;-83
2024/02/09 02:46:25;;;;;;;1999.90;999.90;;;13.40;99.90;;;;;;5094392;28;20390;-80
2024/02/09 03:05:24;;;;;;;1999.90;999.90;;;13.50;99.90;;;;;;5092895;28;20055;-80
2024/02/09 03:07:50;;;;;;;1999.90;999.90;;;13.40;99.90;;;;;;5075712;28;20097;-80
2024/02/09 03:10:16;;;;;;;1999.90;999.90;;;13.50;99.90;;;;;;5093735;28;20030;-84
2024/02/09 03:12:43;;;;;;;1999.90;999.90;;;13.40;99.90;;;;;;5093488;28;20024;-80
2024/02/09 03:15:09;;;;;;;1999.90;999.90;;;13.50;99.90;;;;;;5075558;28;20039;-79
2024/02/09 03:17:39;;;;;;;1999.90;999.90;;;13.50;99.90;;;;;;5093953;28;20042;-79
2024/02/09 03:20:07;;;;;;;1999.90;999.90;;;13.50;99.90;;;;;;5109175;28;20016;-83
2024/02/09 03:22:34;;;;;;;1999.90;999.90;;;13.50;99.90;;;;;;5101061;28;20031;-82
2024/02/09 03:25:02;;;;;;;1999.90;999.90;;;13.50;99.90;;;;;;5093551;28;20028;-80
2024/02/09 03:27:38;;;;;;;1999.90;999.90;;;13.60;99.90;;;;;;5092995;28;20020;-79
2024/02/09 03:30:08;;;;;;;1999.90;999.90;;;13.50;99.90;;;;;;5093474;28;20478;-79
2024/02/09 03:32:36;;;;;;;1999.90;999.90;;;13.50;99.90;;;;;;5070646;28;20027;-80
2024/02/09 03:35:05;;;;;;;1999.90;999.90;;;13.50;99.90;;;;;;5071853;28;20021;-80
2024/02/09 03:37:33;;;;;;;1999.90;999.90;;;13.50;99.90;;;;;;5071964;28;20043;-79
2024/02/09 03:40:05;;;;;;;1999.90;999.90;;;13.40;99.90;;;;;;5073387;28;20021;-80
2024/02/09 03:42:30;;;;;;;1999.90;999.90;;;13.40;99.90;;;;;;5072223;28;20032;-79
2024/02/09 03:44:58;;;;;;;1999.90;999.90;;;13.40;99.90;;;;;;5071650;28;20047;-83
2024/02/09 03:47:26;;;;;;;1999.90;999.90;;;13.50;99.90;;;;;;5071553;28;20107;-80
2024/02/09 03:49:56;;;;;;;1999.90;999.90;;;13.50;99.90;;;;;;5073004;28;20024;-84
2024/02/09 03:52:23;;;;;;;1999.90;999.90;;;13.50;99.90;;;;;;5073009;28;20382;-80
2024/02/09 03:54:53;;;;;;;1999.90;999.90;;;13.50;99.90;;;;;;5072952;28;20403;-80
2024/02/09 03:57:19;;;;;;;1999.90;999.90;;;13.50;99.90;;;;;;5072902;28;20020;-80
2024/02/09 03:59:45;;;;;;;1999.90;999.90;;;13.50;99.90;;;;;;5070637;28;20028;-83
2024/02/09 04:02:11;;;;;;;1999.90;999.90;;;13.50;99.90;;;;;;5062952;28;20027;-80
2024/02/09 04:04:36;;;;;;;1999.90;999.90;;;13.40;99.90;;;;;;5058744;28;20051;-80
2024/02/09 04:07:05;;;;;;;1999.90;999.90;;;13.40;99.90;;;;;;5093041;28;20376;-80
2024/02/09 04:09:33;;;;;;;1999.90;999.90;;;13.40;99.90;;;;;;5092501;28;20023;-80
2024/02/09 04:11:58;;;;;;;1999.90;999.90;;;13.50;99.90;;;;;;5074533;28;20394;-83
2024/02/09 04:14:24;;;;;;;1999.90;999.90;;;13.50;99.90;;;;;;5074706;28;20020;-83
2024/02/09 04:16:50;;;;;;;1999.90;999.90;;;13.60;99.90;;;;;;5093157;28;20031;-80
2024/02/09 04:19:20;;;;;;;1999.90;999.90;;;13.60;99.90;;;;;;5092877;28;20391;-80
2024/02/09 04:21:48;;;;;;;1999.90;999.90;;;13.60;99.90;;;;;;5092715;28;20079;-80
2024/02/09 04:24:19;;;;;;;1999.90;999.90;;;13.60;99.90;;;;;;5092760;28;20495;-80
2024/02/09 04:26:46;;;;;;;1999.90;999.90;;;13.60;99.90;;;;;;5077372;28;20063;-80
2024/02/09 04:29:15;;;;;;;1999.90;999.90;;;13.60;99.90;;;;;;5133774;28;20512;-80
2024/02/09 04:31:44;;;;;;;1999.90;999.90;;;13.60;99.90;;;;;;5115194;28;20024;-80
2024/02/09 04:34:13;;;;;;;1999.90;999.90;;;13.60;99.90;;;;;;5113624;28;20435;-80
2024/02/09 04:36:40;;;;;;;1999.90;999.90;;;13.60;99.90;;;;;;5114835;28;20029;-80
2024/02/09 04:39:10;;;;;;;1999.90;999.90;;;13.60;99.90;;;;;;5128455;27;20031;-83
2024/02/09 04:41:44;;;;;;;1999.90;999.90;;;13.60;99.90;;;;;;5119505;27;20064;-82
2024/02/09 04:44:10;;;;;;;1999.90;999.90;;;13.50;99.90;;;;;;5137698;27;20030;-80
2024/02/09 04:46:38;;;;;;;1999.90;999.90;;;13.50;99.90;;;;;;5137822;27;20035;-80
2024/02/09 04:49:06;;;;;;;1999.90;999.90;;;13.50;99.90;;;;;;5137490;27;20023;-82
2024/02/09 04:51:33;;;;;;;1999.90;999.90;;;13.50;99.90;;;;;;5119075;27;20018;-80
2024/02/09 04:53:59;;;;;;;1999.90;999.90;;;13.50;99.90;;;;;;5119425;27;20434;-83
2024/02/09 04:56:29;;;;;;;1999.90;999.90;;;13.60;99.90;;;;;;5119058;27;20023;-83
2024/02/09 04:58:56;;;;;;;1999.90;999.90;;;13.60;99.90;;;;;;5118914;27;20067;-80
2024/02/09 05:01:29;;;;;;;1999.90;999.90;;;13.60;99.90;;;;;;5111011;28;20023;-80
2024/02/09 05:03:59;;;;;;;1999.90;999.90;;;13.60;99.90;;;;;;5098111;28;20031;-80
2024/02/09 05:06:29;;;;;;;1999.90;999.90;;;13.50;99.90;;;;;;5098299;28;20581;-80
2024/02/09 05:08:57;;;;;;;1999.90;999.90;;;13.50;99.90;;;;;;5098446;28;20024;-80
2024/02/09 05:11:28;;;;;;;1999.90;999.90;;;13.50;99.90;;;;;;5098278;28;20023;-80
2024/02/09 05:13:55;;;;;;;1999.90;999.90;;;13.60;99.90;;;;;;5116629;28;20521;-83
2024/02/09 05:16:21;;;;;;;1999.90;999.90;;;13.60;99.90;;;;;;5098243;28;20437;-80
2024/02/09 05:18:47;;;;;;;1999.90;999.90;;;13.60;99.90;;;;;;5098189;28;20085;-82
2024/02/09 05:21:13;;;;;;;1999.90;999.90;;;13.60;99.90;;;;;;5098080;28;20024;-83
2024/02/09 05:23:38;;;;;;;1999.90;999.90;;;13.60;99.90;;;;;;5116402;28;20059;-80
2024/02/09 05:26:08;;;;;;;1999.90;999.90;;;13.70;99.90;;;;;;5097900;28;20038;-80
2024/02/09 05:28:42;;;;;;;1999.90;999.90;;;13.70;99.90;;;;;;5121571;28;20031;-80
2024/02/09 05:31:19;;;;;;;1999.90;999.90;;;13.70;99.90;;;;;;5115622;28;20494;-83
2024/02/09 05:33:45;;;;;;;1999.90;999.90;;;13.60;99.90;;;;;;5115886;28;20106;-83
2024/02/09 05:36:19;;;;;;;1999.90;999.90;;;13.60;99.90;;;;;;5097956;28;20028;-80
2024/02/09 05:38:45;;;;;;;1999.90;999.90;;;13.60;99.90;;;;;;5097942;28;20077;-80
2024/02/09 05:41:11;;;;;;;1999.90;999.90;;;13.50;99.90;;;;;;5098073;28;20016;-80
2024/02/09 05:43:37;;;;;;;1999.90;999.90;;;13.40;99.90;;;;;;5097314;28;20020;-83
2024/02/09 05:46:03;;;;;;;1999.90;999.90;;;13.40;99.90;;;;;;5097838;28;20398;-83
2024/02/09 05:48:29;;;;;;;1999.90;999.90;;;13.30;99.90;;;;;;5083060;28;20110;-83
2024/02/09 05:50:55;;;;;;;1999.90;999.90;;;13.20;99.90;;;;;;5076439;28;20024;-79
2024/02/09 05:53:21;;;;;;;1999.90;999.90;;;13.20;99.90;;;;;;5093007;28;20034;-83
2024/02/09 05:55:46;;;;;;;1999.90;999.90;;;13.20;99.90;;;;;;5115705;28;20406;-79
2024/02/09 05:58:12;;;;;;;1999.90;999.90;;;13.20;99.90;;;;;;5118158;28;20038;-79
2024/02/09 06:00:38;;;;;;;1999.90;999.90;;;13.10;99.90;;;;;;5115094;28;20028;-79
2024/02/09 06:03:09;;;;;;;1999.90;999.90;;;13.10;99.90;;;;;;5108749;28;20031;-80
2024/02/09 06:05:40;;;;;;;1999.90;999.90;;;13.10;99.90;;;;;;5115204;28;20043;-82
2024/02/09 06:08:09;;;;;;;1999.90;999.90;;;13.10;99.90;;;;;;5097112;28;20126;-80
2024/02/09 06:10:35;;;;;;;1999.90;999.90;;;13.20;99.90;;;;;;5096968;28;20106;-79
2024/02/09 06:13:01;;;;;;;1999.90;999.90;;;13.20;99.90;;;;;;5096963;28;20027;-79
2024/02/09 06:15:27;;;;;;;1999.90;999.90;;;13.30;99.90;;;;;;5096990;28;20394;-79
2024/02/09 06:17:53;;;;;;;1999.90;999.90;;;13.30;99.90;;;;;;5096878;28;20067;-80
2024/02/09 06:20:22;;;;;;;1999.90;999.90;;;13.30;99.90;;;;;;5115448;28;20043;-80
2024/02/09 06:22:49;;;;;;;1999.90;999.90;;;13.30;99.90;;;;;;5114853;28;20023;-79
2024/02/09 06:25:15;;;;;;;1999.90;999.90;;;13.30;99.90;;;;;;5096648;28;20023;-83
2024/02/09 06:27:40;;;;;;;1999.90;999.90;;;13.30;99.90;;;;;;5098545;27;20512;-80
2024/02/09 06:30:06;;;;;;;1999.90;999.90;;;13.30;99.90;;;;;;5100721;28;20023;-79
2024/02/09 06:32:32;;;;;;;1999.90;999.90;;;13.20;99.90;;;;;;5120665;28;20059;-79
2024/02/09 06:34:59;;;;;;;1999.90;999.90;;;13.20;99.90;;;;;;5090814;28;20024;-80
2024/02/09 06:37:25;;;;;;;1999.90;999.90;;;13.10;99.90;;;;;;5113126;27;20039;-79
2024/02/09 06:39:50;;;;;;;1999.90;999.90;;;13.10;99.90;;;;;;5095655;28;20024;-80
2024/02/09 06:42:17;;;;;;;1999.90;999.90;;;13.00;99.90;;;;;;5096389;28;20023;-81
2024/02/09 06:44:43;;;;;;;1999.90;999.90;;;13.10;99.90;;;;;;5112067;28;20035;-81
2024/02/09 06:47:12;;;;;;;1999.90;999.90;;;13.10;99.90;;;;;;5111460;28;21341;-82
2024/02/09 06:49:45;;;;;;;1999.90;999.90;;;13.10;99.90;;;;;;5107531;28;20047;-80
2024/02/09 06:52:12;;;;;;;1999.90;999.90;;;13.10;99.90;;;;;;5115244;28;20020;-82
2024/02/09 06:54:38;;;;;;;1999.90;999.90;;;13.10;99.90;;;;;;5096888;28;20035;-82
2024/02/09 06:57:04;;;;;;;1999.90;999.90;;;13.10;99.90;;;;;;5097351;28;20402;-82
2024/02/09 06:59:29;;;;;;;1999.90;999.90;;;13.20;99.90;;;;;;5090948;28;20035;-84
2024/02/09 07:02:00;;;;;;;1999.90;999.90;;;13.20;99.90;;;;;;5114119;28;20099;-81
2024/02/09 07:04:25;;;;;;;1999.90;999.90;;;13.20;99.90;;;;;;5093980;28;20046;-82
2024/02/09 07:06:54;;;;;;;1999.90;999.90;;;13.20;99.90;;;;;;5079403;28;20138;-82
2024/02/09 07:09:20;;;;;;;1999.90;999.90;;;13.30;99.90;;;;;;5078225;28;20020;-81
2024/02/09 07:11:50;;;;;;;1999.90;999.90;;;13.30;99.90;;;;;;5074540;28;20020;-86
2024/02/09 07:14:19;;;;;;;1999.90;999.90;;;13.30;99.90;;;;;;5076088;28;20044;-81
2024/02/09 07:16:47;;;;;;;1999.90;999.90;;;13.40;99.90;;;;;;5076183;28;20036;-82
2024/02/09 07:19:13;;;;;;;1999.90;999.90;;;13.40;99.90;;;;;;5075228;28;20028;-82
2024/02/09 07:21:40;;;;;;;1999.90;999.90;;;13.50;99.90;;;;;;5095010;28;20039;-83
2024/02/09 07:24:07;;;;;;;1999.90;999.90;;;13.50;99.90;;;;;;5094298;28;20105;-82
2024/02/09 07:26:33;;;;;;;1999.90;999.90;;;13.50;99.90;;;;;;5081659;28;20123;-77
2024/02/09 07:28:59;;;;;;;1999.90;999.90;;;13.50;99.90;;;;;;5092169;28;20016;-77
2024/02/09 07:31:25;;;;;;;1999.90;999.90;;;13.50;99.90;;;;;;5084240;28;20033;-80
2024/02/09 07:33:52;;;;;;;1999.90;999.90;;;13.40;99.90;;;;;;5061223;28;20075;-74
2024/02/09 07:36:18;;;;;;;1999.90;999.90;;;13.50;99.90;;;;;;5065841;28;20486;-75
2024/02/09 07:38:44;;;;;;;1999.90;999.90;;;13.50;99.90;;;;;;5087654;28;20509;-75
2024/02/09 07:41:11;;;;;;;1999.90;999.90;;;13.60;99.90;;;;;;5086626;28;20111;-75
2024/02/09 07:43:36;;;;;;;1999.90;999.90;;;13.70;99.90;;;;;;5073393;28;20044;-76
2024/02/09 07:46:04;;;;;;;1999.90;999.90;;;13.90;99.90;;;;;;5099551;28;20466;-77
2024/02/09 07:48:30;;;;;;;1999.90;999.90;;;14.00;99.90;;;;;;5091809;28;20031;-76
2024/02/09 07:50:56;;;;;;;1999.90;999.90;;;14.00;99.90;;;;;;5061864;28;20032;-76
2024/02/09 07:53:22;;;;;;;1999.90;999.90;;;14.10;99.90;;;;;;5062102;28;20402;-78
2024/02/09 07:55:48;;;;;;;1999.90;999.90;;;14.20;99.90;;;;;;5089675;28;20024;-74
2024/02/09 07:58:16;;;;;;;1999.90;999.90;;;14.20;99.90;;;;;;5091377;28;20024;-75
2024/02/09 08:00:42;;;;;;;1999.90;999.90;;;14.30;99.90;;;;;;5090449;28;20024;-75
2024/02/09 08:03:10;;;;;;;1999.90;999.90;;;14.30;99.90;;;;;;5090532;28;20486;-76
2024/02/09 08:05:38;;;;;;;1999.90;999.90;;;14.40;99.90;;;;;;5083728;28;20050;-75
2024/02/09 08:08:04;;;;;;;1999.90;999.90;;;14.50;99.90;;;;;;5093371;28;20031;-75
2024/02/09 08:10:32;;;;;;;1999.90;999.90;;;14.50;99.90;;;;;;5111065;28;20036;-74
2024/02/09 08:12:58;;;;;;;1999.90;999.90;;;14.50;99.90;;;;;;5109609;28;20027;-78
2024/02/09 08:15:24;;;;;;;1999.90;999.90;;;14.50;99.90;;;;;;5089729;28;20032;-75
2024/02/09 08:17:52;;;;;;;1999.90;999.90;;;14.60;99.90;;;;;;5110150;28;20032;-74
2024/02/09 08:20:19;;;;;;;1999.90;999.90;;;14.70;99.90;;;;;;5111257;28;20028;-76
2024/02/09 08:22:45;;;;;;;1999.90;999.90;;;14.80;99.90;;;;;;5110355;28;20406;-75
2024/02/09 08:25:13;;;;;;;1999.90;999.90;;;14.80;99.90;;;;;;5110639;28;20114;-75
2024/02/09 08:27:38;;;;;;;1999.90;999.90;;;14.80;99.90;;;;;;5109852;28;20024;-76
2024/02/09 08:30:07;;;;;;;1999.90;999.90;;;14.90;99.90;;;;;;5092981;28;20086;-76
2024/02/09 08:32:34;;;;;;;1999.90;999.90;;;14.90;99.90;;;;;;5092687;28;20089;-76
2024/02/09 08:34:59;;;;;;;1999.90;999.90;;;14.90;99.90;;;;;;5110753;28;20051;-76
2024/02/09 08:37:27;;;;;;;1999.90;999.90;;;14.90;99.90;;;;;;5115003;28;20028;-75
2024/02/09 08:39:53;;;;;;;1999.90;999.90;;;14.90;99.90;;;;;;5110754;28;20390;-76
2024/02/09 08:42:19;;;;;;;1999.90;999.90;;;14.90;99.90;;;;;;5109933;28;20026;-75
2024/02/09 08:44:45;;;;;;;1999.90;999.90;;;14.90;99.90;;;;;;5093138;28;20024;-76
2024/02/09 08:47:12;;;;;;;1999.90;999.90;;;15.00;99.90;;;;;;5109950;28;20098;-75
2024/02/09 08:49:38;;;;;;;1999.90;999.90;;;15.10;99.90;;;;;;5110408;28;20027;-75
2024/02/09 08:52:05;;;;;;;1999.90;999.90;;;15.20;99.90;;;;;;5092187;28;20020;-77
2024/02/09 08:54:31;;;;;;;1999.90;999.90;;;15.30;99.90;;;;;;5110865;28;20097;-75
2024/02/09 08:56:57;;;;;;;1999.90;999.90;;;15.40;99.90;;;;;;5119454;28;20032;-76
2024/02/09 08:59:23;;;;;;;1999.90;999.90;;;15.60;99.90;;;;;;5106624;28;20454;-73
2024/02/09 09:01:49;;;;;;;1999.90;999.90;;;15.70;99.90;;;;;;5109964;28;20066;-75
2024/02/09 09:04:14;;;;;;;1999.90;999.90;;;15.90;99.90;;;;;;5109939;28;20043;-75
2024/02/09 09:06:40;;;;;;;1999.90;999.90;;;15.90;99.90;;;;;;5073702;28;20035;-74
2024/02/09 09:09:07;;;;;;;1999.90;999.90;;;16.00;99.90;;;;;;5078955;28;20039;-74
2024/02/09 09:11:34;;;;;;;1999.90;999.90;;;16.00;99.90;;;;;;5084148;28;20107;-75
2024/02/09 09:14:00;;;;;;;1999.90;999.90;;;16.10;99.90;;;;;;5077894;28;20110;-76
2024/02/09 09:16:27;;;;;;;1999.90;999.90;;;16.10;99.90;;;;;;5083686;28;20027;-75
2024/02/09 09:18:53;;;;;;;1999.90;999.90;;;16.10;99.90;;;;;;5086721;28;20032;-75
2024/02/09 09:21:18;;;;;;;1999.90;999.90;;;16.10;99.90;;;;;;5052889;28;20098;-75
2024/02/09 09:23:44;;;;;;;1999.90;999.90;;;16.10;99.90;;;;;;5069973;28;20060;-75
2024/02/09 09:26:10;;;;;;;1999.90;999.90;;;16.10;99.90;;;;;;5080395;28;20036;-74
2024/02/09 09:28:36;;;;;;;1999.90;999.90;;;16.10;99.90;;;;;;5087702;28;20028;-75
2024/02/09 09:31:02;;;;;;;1999.90;999.90;;;16.10;99.90;;;;;;5104468;28;20402;-76
2024/02/09 09:33:32;;;;;;;1999.90;999.90;;;16.10;99.90;;;;;;5094753;28;20055;-75
2024/02/09 09:36:00;;;;;;;1999.90;999.90;;;16.10;99.90;;;;;;5087129;28;20020;-75
2024/02/09 09:38:26;;;;;;;1999.90;999.90;;;16.10;99.90;;;;;;5061028;28;20499;-75
2024/02/09 09:40:55;;;;;;;1999.90;999.90;;;16.10;99.90;;;;;;5077455;28;20021;-75
2024/02/09 09:43:22;;;;;;;1999.90;999.90;;;16.10;99.90;;;;;;5086660;28;20173;-76
2024/02/09 09:46:00;;;;;;;1999.90;999.90;;;16.10;99.90;;;;;;5095129;28;20024;-77
2024/02/09 09:48:29;;;;;;;1999.90;999.90;;;16.00;99.90;;;;;;5085080;28;20126;-77
2024/02/09 09:50:55;;;;;;;1999.90;999.90;;;15.90;99.90;;;;;;5070011;28;20031;-75
2024/02/09 09:53:25;;;;;;;1999.90;999.90;;;15.90;99.90;;;;;;5089744;28;20039;-75
2024/02/09 09:55:53;;;;;;;1999.90;999.90;;;15.80;99.90;;;;;;5070951;28;20498;-76
2024/02/09 09:58:20;;;;;;;1999.90;999.90;;;15.70;99.90;;;;;;5072198;28;20418;-76
2024/02/09 10:00:48;;;;;;;1999.90;999.90;;;15.70;99.90;;;;;;5081095;28;20024;-75
2024/02/09 10:03:14;;;;;;;1999.90;999.90;;;15.70;99.90;;;;;;5072183;28;20032;-76
2024/02/09 10:05:40;;;;;;;1999.90;999.90;;;15.80;99.90;;;;;;5065053;28;20083;-75
2024/02/09 10:08:07;;;;;;;1999.90;999.90;;;15.80;99.90;;;;;;5093358;28;20028;-75
2024/02/09 10:10:33;;;;;;;1999.90;999.90;;;15.90;99.90;;;;;;5087143;28;20028;-75
2024/02/09 10:13:04;;;;;;;1999.90;999.90;;;15.90;99.90;;;;;;5089294;28;20016;-75
2024/02/09 10:15:30;;;;;;;1999.90;999.90;;;15.90;99.90;;;;;;5094075;28;20019;-75
2024/02/09 10:17:56;;;;;;;1999.90;999.90;;;15.90;99.90;;;;;;5075700;28;20036;-75
2024/02/09 10:20:22;;;;;;;1999.90;999.90;;;15.90;99.90;;;;;;5089956;28;20020;-75
2024/02/09 10:22:48;;;;;;;1999.90;999.90;;;15.90;99.90;;;;;;5083771;28;20040;-75
2024/02/09 10:25:15;;;;;;;1999.90;999.90;;;16.00;99.90;;;;;;5070672;28;20046;-75
2024/02/09 10:27:42;;;;;;;1999.90;999.90;;;16.00;99.90;;;;;;5070602;28;20058;-75
2024/02/09 10:30:08;;;;;;;1999.90;999.90;;;16.00;99.90;;;;;;5087244;28;20069;-74
2024/02/09 10:32:34;;;;;;;1999.90;999.90;;;16.00;99.90;;;;;;5072165;28;20024;-76
2024/02/09 10:35:00;;;;;;;1999.90;999.90;;;15.90;99.90;;;;;;5091393;28;20028;-75
2024/02/09 10:37:26;;;;;;;1999.90;999.90;;;15.80;99.90;;;;;;5089503;28;20748;-76
2024/02/09 10:39:52;;;;;;;1999.90;999.90;;;15.80;99.90;;;;;;5090311;28;20054;-75
2024/02/09 10:42:21;;;;;;;1999.90;999.90;;;15.80;99.90;;;;;;5082703;28;20423;-74
2024/02/09 10:44:49;;;;;;;1999.90;999.90;;;15.70;99.90;;;;;;5076447;28;20025;-75
2024/02/09 10:47:15;;;;;;;1999.90;999.90;;;15.70;99.90;;;;;;5090925;28;20031;-75
2024/02/09 10:49:43;;;;;;;1999.90;999.90;;;15.70;99.90;;;;;;5073866;28;20115;-76
2024/02/09 10:52:09;;;;;;;1999.90;999.90;;;15.70;99.90;;;;;;5091671;28;20024;-76
2024/02/09 10:54:47;;;;;;;1999.90;999.90;;;15.80;99.90;;;;;;5091992;28;20031;-75
2024/02/09 10:57:14;;;;;;;1999.90;999.90;;;15.80;99.90;;;;;;5089364;28;20430;-76
2024/02/09 10:59:41;;;;;;;1999.90;999.90;;;15.80;99.90;;;;;;5092682;28;20109;-75
2024/02/09 11:02:13;;;;;;;1999.90;999.90;;;15.70;99.90;;;;;;5065009;28;20036;-77
2024/02/09 11:04:40;;;;;;;1999.90;999.90;;;15.60;99.90;;;;;;5075528;28;20043;-74
2024/02/09 11:07:07;;;;;;;1999.90;999.90;;;15.40;99.90;;;;;;5103086;28;20046;-74
2024/02/09 11:09:33;;;;;;;1999.90;999.90;;;15.30;99.90;;;;;;5105455;28;20023;-74
2024/02/09 11:12:00;;;;;;;1999.90;999.90;;;15.20;99.90;;;;;;5110176;28;20119;-75
2024/02/09 11:14:32;;;;;;;1999.90;999.90;;;15.10;99.90;;;;;;5108652;28;20116;-74
2024/02/09 11:17:04;;;;;;;1999.90;999.90;;;15.00;99.90;;;;;;5110392;28;20034;-74
2024/02/09 11:19:29;;;;;;;1999.90;999.90;;;14.90;99.90;;;;;;5117949;27;20553;-74
2024/02/09 11:21:57;;;;;;;1999.90;999.90;;;14.90;99.90;;;;;;5094558;28;20035;-74
2024/02/09 11:24:25;;;;;;;1999.90;999.90;;;14.80;99.90;;;;;;5111193;28;20027;-73
2024/02/09 11:26:51;;;;;;;1999.90;999.90;;;14.80;99.90;;;;;;5116947;27;20027;-73
2024/02/09 11:29:17;;;;;;;1999.90;999.90;;;14.70;99.90;;;;;;5114437;27;20069;-75
2024/02/09 11:31:52;;;;;;;1999.90;999.90;;;14.70;99.90;;;;;;5113869;27;20034;-74
2024/02/09 11:34:20;;;;;;;1999.90;999.90;;;14.80;99.90;;;;;;5116975;27;20102;-76
2024/02/09 11:36:46;;;;;;;1999.90;999.90;;;14.70;99.90;;;;;;5093264;28;20034;-73
2024/02/09 11:39:12;;;;;;;1999.90;999.90;;;14.70;99.90;;;;;;5093295;28;20023;-75
2024/02/09 11:41:39;;;;;;;1999.90;999.90;;;14.90;99.90;;;;;;5091210;28;20630;-75
2024/02/09 11:44:07;;;;;;;1999.90;999.90;;;14.80;99.90;;;;;;5112533;27;20355;-75
2024/02/09 11:46:35;;;;;;;1999.90;999.90;;;14.70;99.90;;;;;;5089991;28;20123;-75
2024/02/09 11:49:02;;;;;;;1999.90;999.90;;;14.60;99.90;;;;;;5094605;28;20478;-75
2024/02/09 11:51:28;;;;;;;1999.90;999.90;;;14.60;99.90;;;;;;5110348;28;20034;-75
2024/02/09 11:53:54;;;;;;;1999.90;999.90;;;14.60;99.90;;;;;;5092031;28;20051;-76
2024/02/09 11:56:20;;;;;;;1999.90;999.90;;;14.80;99.90;;;;;;5096153;27;20090;-75
2024/02/09 11:58:49;;;;;;;1999.90;999.90;;;15.40;99.90;;;;;;5114705;27;20025;-74
2024/02/09 12:01:22;;;;;;;1999.90;999.90;;;15.40;99.90;;;;;;5090294;28;20035;-75
2024/02/09 12:03:48;;;;;;;;;;;15.30;99.90;;;;;;5091243;28;20106;-73
2024/02/09 12:06:14;;;;;;;1999.90;999.90;;;15.10;99.90;;;;;;5108700;28;19919;-75
2024/02/09 12:08:41;;;;;;;1999.90;999.90;;;15.00;99.90;;;;;;5105247;28;20053;-74
2024/02/09 12:11:07;;;;;;;1999.90;999.90;;;14.80;99.90;;;;;;5104990;28;20020;-75
2024/02/09 12:13:32;;;;;;;1999.90;999.90;;;14.60;99.90;;;;;;5075605;28;20035;-75
2024/02/09 12:15:58;;;;;;;1999.90;999.90;;;14.40;99.90;;;;;;5079087;28;20031;-75
2024/02/09 12:18:26;;;;;;;1999.90;999.90;;;14.30;99.90;;;;;;5098857;28;20024;-74
2024/02/09 12:20:54;;;;;;;1999.90;999.90;;;14.20;99.90;;;;;;5104888;28;20019;-73
2024/02/09 12:23:22;;;;;;;1999.90;999.90;;;14.20;99.90;;;;;;5091267;28;20031;-73
2024/02/09 12:25:48;;;;;;;1999.90;999.90;;;14.10;99.90;;;;;;5100535;28;20044;-75
2024/02/09 12:28:23;;;;;;;1999.90;999.90;;;14.10;99.90;;;;;;5091294;28;20470;-74
2024/02/09 12:30:50;;;;;;;1999.90;999.90;;;14.10;99.90;;;;;;5086316;28;20032;-74
2024/02/09 12:33:23;;;;;;;1999.90;999.90;;;14.00;99.90;;;;;;5077178;28;20028;-73
2024/02/09 12:35:48;;;;;;;1999.90;999.90;;;14.00;99.90;;;;;;5096729;28;20087;-73
2024/02/09 12:38:16;;;;;;;1999.90;999.90;;;14.10;99.90;;;;;;5104341;28;20095;-73
2024/02/09 12:40:43;;;;;;;1999.90;999.90;;;14.20;99.90;;;;;;5110319;28;20019;-74
2024/02/09 12:43:19;;;;;;;1999.90;999.90;;;14.20;99.90;;;;;;5109543;28;20027;-72
2024/02/09 12:45:46;;;;;;;1999.90;999.90;;;14.20;99.90;;;;;;5081336;28;20081;-73
2024/02/09 12:48:12;;;;;;;1999.90;999.90;;;14.30;99.90;;;;;;5110878;28;20027;-73
2024/02/09 12:50:38;;;;;;;1999.90;999.90;;;14.50;99.90;;;;;;5105713;28;20100;-74
2024/02/09 12:53:04;;;;;;;1999.90;999.90;;;14.50;99.90;;;;;;5106210;28;20057;-74
2024/02/09 12:55:32;;;;;;;1999.90;999.90;;;14.50;99.90;;;;;;5073219;28;20513;-73
2024/02/09 12:57:58;;;;;;;1999.90;999.90;;;14.80;99.90;;;;;;5091356;28;20111;-74
2024/02/09 13:00:24;;;;;;;1999.90;999.90;;;14.90;99.90;;;;;;5087211;28;20024;-72
2024/02/09 13:02:50;;;;;;;1999.90;999.90;;;15.00;99.90;;;;;;5089994;28;20059;-73
2024/02/09 13:05:16;;;;;;;1999.90;999.90;;;14.60;99.90;;;;;;5117375;27;20058;-73
2024/02/09 13:07:43;;;;;;;1999.90;999.90;;;14.60;99.90;;;;;;5126360;28;20051;-74
2024/02/09 13:10:10;;;;;;;1999.90;999.90;;;14.70;99.90;;;;;;5115258;27;20107;-74
2024/02/09 13:12:37;;;;;;;1999.90;999.90;;;15.00;99.90;;;;;;5104550;28;20135;-74
2024/02/09 13:15:10;;;;;;;1999.90;999.90;;;14.80;99.90;;;;;;5113625;28;20028;-74
2024/02/09 13:17:35;;;;;;;1999.90;999.90;;;14.80;99.90;;;;;;5103171;28;20059;-72
2024/02/09 13:20:06;;;;;;;1999.90;999.90;;;15.40;99.90;;;;;;5114448;28;20474;-72
2024/02/09 13:22:33;;;;;;;1999.90;999.90;;;15.80;99.90;;;;;;5109827;28;20734;-74
2024/02/09 13:24:59;;;;;;;1999.90;999.90;;;15.80;99.90;;;;;;5096209;28;20024;-74
2024/02/09 13:27:24;;;;;;;1999.90;999.90;;;15.70;99.90;;;;;;5103821;28;20084;-76
2024/02/09 13:29:50;;;;;;;1999.90;999.90;;;15.70;99.90;;;;;;5089986;28;20486;-72
2024/02/09 13:32:18;;;;;;;1999.90;999.90;;;15.70;99.90;;;;;;5107433;28;20016;-73
2024/02/09 13:34:43;;;;;;;1999.90;999.90;;;15.50;99.90;;;;;;5099535;28;20024;-74
2024/02/09 13:37:09;;;;;;;1999.90;999.90;;;15.30;99.90;;;;;;5090180;27;20039;-75
2024/02/09 13:39:35;;;;;;;1999.90;999.90;;;15.20;99.90;;;;;;5114477;28;20130;-75
2024/02/09 13:42:00;;;;;;;1999.90;999.90;;;15.20;99.90;;;;;;5113226;28;20042;-75
2024/02/09 13:44:26;;;;;;;1999.90;999.90;;;15.40;99.90;;;;;;5114756;28;20028;-75
2024/02/09 13:46:52;;;;;;;1999.90;999.90;;;15.30;99.90;;;;;;5112525;28;20103;-74